createdAt,value
2017-06-08T00:00:23.226Z,84.15
2017-06-08T00:01:23.241Z,84.44
2017-06-08T00:02:23.238Z,84.68
2017-06-08T00:03:23.255Z,84.81
2017-06-08T00:04:23.229Z,85.27
2017-06-08T00:05:23.250Z,86.44
2017-06-08T00:06:23.229Z,86.17
2017-06-08T00:07:23.229Z,86.12
2017-06-08T00:08:23.232Z,86.68
2017-06-08T00:09:23.229Z,86.41
2017-06-08T00:10:23.313Z,87.02
2017-06-08T00:11:23.234Z,86.91
2017-06-08T00:12:23.233Z,87.29
2017-06-08T00:13:23.234Z,87.56
2017-06-08T00:14:23.234Z,87.93
2017-06-08T00:15:23.234Z,87.56
2017-06-08T00:16:23.236Z,88.25
2017-06-08T00:17:23.233Z,86.65
2017-06-08T00:18:23.264Z,87.45
2017-06-08T00:19:23.239Z,86.94
2017-06-08T00:20:23.239Z,87.18
2017-06-08T00:21:23.240Z,86.15
2017-06-08T00:22:23.238Z,85.61
2017-06-08T00:23:23.241Z,85.83
2017-06-08T00:24:23.243Z,84.71
2017-06-08T00:25:23.242Z,84.12
2017-06-08T00:26:23.208Z,83.54
2017-06-08T00:27:23.279Z,82.93
2017-06-08T00:28:23.256Z,82.29
2017-06-08T00:29:23.247Z,82.45
2017-06-08T00:30:23.243Z,81.95
2017-06-08T00:31:23.165Z,82.29
2017-06-08T00:32:23.162Z,81.84
2017-06-08T00:33:23.249Z,82.35
2017-06-08T00:34:23.350Z,82.40
2017-06-08T00:35:23.255Z,82.69
2017-06-08T00:36:23.271Z,82.61
2017-06-08T00:37:23.183Z,83.01
2017-06-08T00:38:23.251Z,82.61
2017-06-08T00:39:23.182Z,82.35
2017-06-08T00:40:23.181Z,82.53
2017-06-08T00:41:23.273Z,82.72
2017-06-08T00:42:23.266Z,82.90
2017-06-08T00:43:23.276Z,82.98
2017-06-08T00:44:23.260Z,82.59
2017-06-08T00:45:23.231Z,83.01
2017-06-08T00:46:23.274Z,82.90
2017-06-08T00:47:23.265Z,83.17
2017-06-08T00:48:23.190Z,82.90
2017-06-08T00:49:23.238Z,82.80
2017-06-08T00:50:23.279Z,82.48
2017-06-08T00:51:23.271Z,82.67
2017-06-08T00:52:23.274Z,81.92
2017-06-08T00:53:23.273Z,81.98
2017-06-08T00:54:23.259Z,82.16
2017-06-08T00:55:23.207Z,81.52
2017-06-08T00:56:23.187Z,81.18
2017-06-08T00:57:23.188Z,81.13
2017-06-08T00:58:23.274Z,81.26
2017-06-08T00:59:23.196Z,81.90
2017-06-08T01:00:23.283Z,81.10
2017-06-08T01:01:23.274Z,81.84
2017-06-08T01:02:23.255Z,81.74
2017-06-08T01:03:23.274Z,81.71
2017-06-08T01:04:23.287Z,81.00
2017-06-08T01:05:23.358Z,80.55
2017-06-08T01:06:23.273Z,81.32
2017-06-08T01:07:23.283Z,80.52
2017-06-08T01:08:23.251Z,80.65
2017-06-08T01:09:23.255Z,80.44
2017-06-08T01:10:23.202Z,80.13
2017-06-08T01:11:23.289Z,79.89
2017-06-08T01:12:23.288Z,79.89
2017-06-08T01:13:23.287Z,79.99
2017-06-08T01:14:23.281Z,79.81
2017-06-08T01:15:23.289Z,79.63
2017-06-08T01:16:23.268Z,78.91
2017-06-08T01:17:23.282Z,79.25
2017-06-08T01:18:23.291Z,79.28
2017-06-08T01:19:23.282Z,78.97
2017-06-08T01:20:23.285Z,79.13
2017-06-08T01:21:23.287Z,78.25
2017-06-08T01:22:23.255Z,79.49
2017-06-08T01:23:23.206Z,80.26
2017-06-08T01:24:23.251Z,81.16
2017-06-08T01:25:23.276Z,81.29
2017-06-08T01:26:23.284Z,81.13
2017-06-08T01:27:23.205Z,82.35
2017-06-08T01:28:23.256Z,82.45
2017-06-08T01:29:23.284Z,82.72
2017-06-08T01:30:23.296Z,83.12
2017-06-08T01:31:23.259Z,83.20
2017-06-08T01:32:23.301Z,83.25
2017-06-08T01:33:23.295Z,83.51
2017-06-08T01:34:23.287Z,83.70
2017-06-08T01:35:23.287Z,83.78
2017-06-08T01:36:23.291Z,83.83
2017-06-08T01:37:23.259Z,84.07
2017-06-08T01:38:23.217Z,84.42
2017-06-08T01:39:23.304Z,84.44
2017-06-08T01:40:23.234Z,84.28
2017-06-08T01:41:23.232Z,84.60
2017-06-08T01:42:23.213Z,84.79
2017-06-08T01:43:23.302Z,84.89
2017-06-08T01:44:23.299Z,84.76
2017-06-08T01:45:23.302Z,85.05
2017-06-08T01:46:23.298Z,84.55
2017-06-08T01:47:23.305Z,84.47
2017-06-08T01:48:23.306Z,84.97
2017-06-08T01:49:23.301Z,84.28
2017-06-08T01:50:23.279Z,84.52
2017-06-08T01:51:23.295Z,84.15
2017-06-08T01:52:23.222Z,84.09
2017-06-08T01:53:23.208Z,84.12
2017-06-08T01:54:23.248Z,84.17
2017-06-08T01:55:23.255Z,84.34
2017-06-08T01:56:23.213Z,84.44
2017-06-08T01:57:23.250Z,84.71
2017-06-08T01:58:23.343Z,84.76
2017-06-08T01:59:23.213Z,84.74
2017-06-08T02:00:23.256Z,84.63
2017-06-08T02:01:23.255Z,84.58
2017-06-08T02:02:23.212Z,84.95
2017-06-08T02:03:23.292Z,85.00
2017-06-08T02:04:23.294Z,85.80
2017-06-08T02:05:23.305Z,85.48
2017-06-08T02:06:23.293Z,85.40
2017-06-08T02:07:23.294Z,85.40
2017-06-08T02:08:23.294Z,85.83
2017-06-08T02:09:23.297Z,86.04
2017-06-08T02:10:23.294Z,85.72
2017-06-08T02:11:31.711Z,85.50
2017-06-08T02:12:23.297Z,85.53
2017-06-08T02:13:23.284Z,85.30
2017-06-08T02:14:23.283Z,85.40
2017-06-08T02:16:23.283Z,84.84
2017-06-08T02:17:23.287Z,84.68
2017-06-08T02:18:23.394Z,84.63
2017-06-08T02:19:23.287Z,84.26
2017-06-08T02:20:23.284Z,84.23
2017-06-08T02:21:23.289Z,83.99
2017-06-08T02:22:23.286Z,84.20
2017-06-08T02:23:23.494Z,84.20
2017-06-08T02:24:23.231Z,84.12
2017-06-08T02:25:23.332Z,83.86
2017-06-08T02:26:23.256Z,84.28
2017-06-08T02:27:23.289Z,84.23
2017-06-08T02:28:23.287Z,83.86
2017-06-08T02:29:23.327Z,84.07
2017-06-08T02:30:23.323Z,84.17
2017-06-08T02:31:23.330Z,84.07
2017-06-08T02:32:23.246Z,84.66
2017-06-08T02:33:23.329Z,84.12
2017-06-08T02:34:23.313Z,85.08
2017-06-08T02:35:23.246Z,84.66
2017-06-08T02:36:23.243Z,84.55
2017-06-08T02:38:23.330Z,84.84
2017-06-08T02:39:23.438Z,84.89
2017-06-08T02:40:23.338Z,84.68
2017-06-08T02:41:23.327Z,84.92
2017-06-08T02:42:23.337Z,84.76
2017-06-08T02:43:23.339Z,85.00
2017-06-08T02:44:23.250Z,84.92
2017-06-08T02:45:23.336Z,84.39
2017-06-08T02:46:23.332Z,85.00
2017-06-08T02:47:23.308Z,84.12
2017-06-08T02:48:23.332Z,84.17
2017-06-08T02:49:23.327Z,84.17
2017-06-08T02:50:23.342Z,84.23
2017-06-08T02:51:23.294Z,84.50
2017-06-08T02:52:23.273Z,84.31
2017-06-08T02:53:23.308Z,84.42
2017-06-08T02:54:23.307Z,84.44
2017-06-08T02:55:23.309Z,84.44
2017-06-08T02:56:23.331Z,84.23
2017-06-08T02:57:23.309Z,84.52
2017-06-08T02:58:23.311Z,85.08
2017-06-08T02:59:23.316Z,84.92
2017-06-08T03:00:23.310Z,85.21
2017-06-08T03:01:23.311Z,85.66
2017-06-08T03:02:23.309Z,84.74
2017-06-08T03:03:23.317Z,85.24
2017-06-08T03:04:23.310Z,85.64
2017-06-08T03:05:23.262Z,85.21
2017-06-08T03:06:23.342Z,84.60
2017-06-08T03:07:23.315Z,85.03
2017-06-08T03:08:23.306Z,85.66
2017-06-08T03:09:23.283Z,85.99
2017-06-08T03:10:23.351Z,85.43
2017-06-08T03:11:23.266Z,84.92
2017-06-08T03:12:23.262Z,85.46
2017-06-08T03:13:23.351Z,85.27
2017-06-08T03:14:23.268Z,85.61
2017-06-08T03:15:23.358Z,84.95
2017-06-08T03:16:23.340Z,84.76
2017-06-08T03:17:23.348Z,85.03
2017-06-08T03:18:23.271Z,85.27
2017-06-08T03:19:23.351Z,85.03
2017-06-08T03:20:23.359Z,85.19
2017-06-08T03:21:23.348Z,85.03
2017-06-08T03:22:23.349Z,84.89
2017-06-08T03:23:23.347Z,84.60
2017-06-08T03:24:23.341Z,84.71
2017-06-08T03:25:23.351Z,84.66
2017-06-08T03:26:23.435Z,84.95
2017-06-08T03:27:23.455Z,84.76
2017-06-08T03:28:23.267Z,84.81
2017-06-08T03:29:23.323Z,85.03
2017-06-08T03:30:23.352Z,84.97
2017-06-08T03:31:23.277Z,85.35
2017-06-08T03:32:23.347Z,84.89
2017-06-08T03:33:23.277Z,85.03
2017-06-08T03:34:23.355Z,85.03
2017-06-08T03:35:23.274Z,85.00
2017-06-08T03:36:23.356Z,84.92
2017-06-08T03:37:23.275Z,84.26
2017-06-08T03:38:23.350Z,84.55
2017-06-08T03:39:23.278Z,84.76
2017-06-08T03:41:23.350Z,83.97
2017-06-08T03:42:23.275Z,84.02
2017-06-08T03:43:23.360Z,83.97
2017-06-08T03:44:23.356Z,84.05
2017-06-08T03:45:23.273Z,83.97
2017-06-08T03:46:23.305Z,83.99
2017-06-08T03:47:23.311Z,84.15
2017-06-08T03:48:23.387Z,84.17
2017-06-08T03:49:23.271Z,83.97
2017-06-08T03:50:23.311Z,84.39
2017-06-08T03:51:23.269Z,84.07
2017-06-08T03:52:23.309Z,84.60
2017-06-08T03:53:23.271Z,84.09
2017-06-08T03:54:23.311Z,84.44
2017-06-08T03:55:23.367Z,84.50
2017-06-08T03:56:23.362Z,84.68
2017-06-08T03:57:23.368Z,84.84
2017-06-08T03:58:23.287Z,85.08
2017-06-08T03:59:23.363Z,84.47
2017-06-08T04:00:23.483Z,84.50
2017-06-08T04:01:23.287Z,84.63
2017-06-08T04:02:23.368Z,84.71
2017-06-08T04:03:23.380Z,84.92
2017-06-08T04:04:23.293Z,85.32
2017-06-08T04:05:23.333Z,85.03
2017-06-08T04:06:23.373Z,84.81
2017-06-08T04:07:23.372Z,85.16
2017-06-08T04:08:23.297Z,84.79
2017-06-08T04:09:23.352Z,84.71
2017-06-08T04:10:23.352Z,85.08
2017-06-08T04:11:23.382Z,85.50
2017-06-08T04:12:23.375Z,85.69
2017-06-08T04:13:23.323Z,85.53
2017-06-08T04:14:23.287Z,85.35
2017-06-08T04:15:23.348Z,85.46
2017-06-08T04:16:23.346Z,85.50
2017-06-08T04:17:23.343Z,85.46
2017-06-08T04:18:23.350Z,85.43
2017-06-08T04:19:23.344Z,85.75
2017-06-08T04:20:23.353Z,85.08
2017-06-08T04:21:23.348Z,86.25
2017-06-08T04:22:23.348Z,85.99
2017-06-08T04:23:23.351Z,85.96
2017-06-08T04:24:23.349Z,86.25
2017-06-08T04:25:23.362Z,86.60
2017-06-08T04:26:23.366Z,86.73
2017-06-08T04:27:23.365Z,87.26
2017-06-08T04:28:23.362Z,87.88
2017-06-08T04:29:23.364Z,88.04
2017-06-08T04:30:23.364Z,87.48
2017-06-08T04:31:23.383Z,85.56
2017-06-08T04:32:23.365Z,85.75
2017-06-08T04:33:23.368Z,85.91
2017-06-08T04:34:23.368Z,85.69
2017-06-08T04:35:23.366Z,86.49
2017-06-08T04:36:23.368Z,86.79
2017-06-08T04:37:23.388Z,86.07
2017-06-08T04:38:23.309Z,86.49
2017-06-08T04:39:23.304Z,86.91
2017-06-08T04:40:23.377Z,86.97
2017-06-08T04:41:23.305Z,86.79
2017-06-08T04:42:23.388Z,86.07
2017-06-08T04:43:23.389Z,86.81
2017-06-08T04:44:23.398Z,86.33
2017-06-08T04:45:23.375Z,86.60
2017-06-08T04:46:23.375Z,86.97
2017-06-08T04:47:23.375Z,87.64
2017-06-08T04:48:23.375Z,86.81
2017-06-08T04:49:23.376Z,87.21
2017-06-08T04:50:23.381Z,87.18
2017-06-08T04:51:23.378Z,87.10
2017-06-08T04:52:23.379Z,87.24
2017-06-08T04:53:23.380Z,87.48
2017-06-08T04:54:23.380Z,86.52
2017-06-08T04:55:23.380Z,86.76
2017-06-08T04:56:23.381Z,86.01
2017-06-08T04:57:23.384Z,86.12
2017-06-08T04:58:23.382Z,85.88
2017-06-08T04:59:23.381Z,85.75
2017-06-08T05:00:23.383Z,85.75
2017-06-08T05:01:23.383Z,85.69
2017-06-08T05:02:23.387Z,85.40
2017-06-08T05:03:23.383Z,85.32
2017-06-08T05:04:23.386Z,85.61
2017-06-08T05:05:23.324Z,85.30
2017-06-08T05:06:23.321Z,84.97
2017-06-08T05:07:23.517Z,84.97
2017-06-08T05:08:23.314Z,85.69
2017-06-08T05:09:23.407Z,85.00
2017-06-08T05:10:23.323Z,85.56
2017-06-08T05:11:23.367Z,85.64
2017-06-08T05:12:23.401Z,85.13
2017-06-08T05:13:23.413Z,84.81
2017-06-08T05:14:23.403Z,85.35
2017-06-08T05:15:23.407Z,84.79
2017-06-08T05:16:23.378Z,84.79
2017-06-08T05:17:23.391Z,84.92
2017-06-08T05:18:23.411Z,85.43
2017-06-08T05:19:23.431Z,85.38
2017-06-08T05:20:23.330Z,86.38
2017-06-08T05:21:23.417Z,85.75
2017-06-08T05:22:23.325Z,85.77
2017-06-08T05:23:23.407Z,86.25
2017-06-08T05:24:23.417Z,86.49
2017-06-08T05:25:23.334Z,87.37
2017-06-08T05:26:23.391Z,87.16
2017-06-08T05:27:23.425Z,87.24
2017-06-08T05:28:23.411Z,87.21
2017-06-08T05:29:23.414Z,88.39
2017-06-08T05:30:23.415Z,88.23
2017-06-08T05:31:23.325Z,89.59
2017-06-08T05:32:23.434Z,89.78
2017-06-08T05:33:23.327Z,89.94
2017-06-08T05:34:23.420Z,89.59
2017-06-08T05:35:23.421Z,89.56
2017-06-08T05:36:23.425Z,90.45
2017-06-08T05:37:23.326Z,90.88
2017-06-08T05:38:23.414Z,90.15
2017-06-08T05:39:23.422Z,91.11
2017-06-08T05:40:23.329Z,91.20
2017-06-08T05:41:23.430Z,91.71
2017-06-08T05:42:23.436Z,91.95
2017-06-08T05:43:23.528Z,92.35
2017-06-08T05:44:23.421Z,92.03
2017-06-08T05:45:23.432Z,92.14
2017-06-08T05:46:23.408Z,92.57
2017-06-08T05:47:23.414Z,92.14
2017-06-08T05:48:23.412Z,92.35
2017-06-08T05:49:23.409Z,92.57
2017-06-08T05:50:23.411Z,92.49
2017-06-08T05:51:23.417Z,91.71
2017-06-08T05:52:23.411Z,92.32
2017-06-08T05:53:23.414Z,91.82
2017-06-08T05:54:23.412Z,92.49
2017-06-08T05:55:23.414Z,92.73
2017-06-08T05:56:23.434Z,91.82
2017-06-08T05:57:23.413Z,91.57
2017-06-08T05:58:23.410Z,91.86
2017-06-08T05:59:23.421Z,90.61
2017-06-08T06:00:23.393Z,91.33
2017-06-08T06:01:23.485Z,91.07
2017-06-08T06:02:23.435Z,91.52
2017-06-08T06:03:23.486Z,91.73
2017-06-08T06:04:23.451Z,91.73
2017-06-08T06:05:23.441Z,91.09
2017-06-08T06:06:23.442Z,90.96
2017-06-08T06:07:23.443Z,90.93
2017-06-08T06:08:23.439Z,90.55
2017-06-08T06:09:23.439Z,91.52
2017-06-08T06:10:23.403Z,90.58
2017-06-08T06:11:23.441Z,90.55
2017-06-08T06:12:23.358Z,90.26
2017-06-08T06:13:23.352Z,91.36
2017-06-08T06:14:23.495Z,90.26
2017-06-08T06:15:23.442Z,90.20
2017-06-08T06:16:23.492Z,91.11
2017-06-08T06:17:23.442Z,88.76
2017-06-08T06:18:23.367Z,90.45
2017-06-08T06:19:23.443Z,91.41
2017-06-08T06:20:23.440Z,90.18
2017-06-08T06:21:23.446Z,91.76
2017-06-08T06:22:23.447Z,91.47
2017-06-08T06:23:23.449Z,91.68
2017-06-08T06:24:23.407Z,91.63
2017-06-08T06:25:23.362Z,91.63
2017-06-08T06:26:23.441Z,91.17
2017-06-08T06:27:23.392Z,89.27
2017-06-08T06:28:23.450Z,90.93
2017-06-08T06:29:23.365Z,90.47
2017-06-08T06:30:23.450Z,90.71
2017-06-08T06:31:23.451Z,91.65
2017-06-08T06:32:23.444Z,92.03
2017-06-08T06:33:23.439Z,90.98
2017-06-08T06:34:23.384Z,90.90
2017-06-08T06:35:23.452Z,92.08
2017-06-08T06:36:23.462Z,92.49
2017-06-08T06:37:23.377Z,91.25
2017-06-08T06:38:23.453Z,92.16
2017-06-08T06:39:23.432Z,92.57
2017-06-08T06:40:23.460Z,91.79
2017-06-08T06:41:23.450Z,92.43
2017-06-08T06:42:23.460Z,92.73
2017-06-08T06:43:23.465Z,92.65
2017-06-08T06:44:23.467Z,90.90
2017-06-08T06:45:23.421Z,90.66
2017-06-08T06:46:23.471Z,91.11
2017-06-08T06:47:23.465Z,91.82
2017-06-08T06:48:23.469Z,92.54
2017-06-08T06:49:23.464Z,92.70
2017-06-08T06:50:23.463Z,92.78
2017-06-08T06:51:23.473Z,93.10
2017-06-08T06:52:23.377Z,93.45
2017-06-08T06:53:23.462Z,93.37
2017-06-08T06:54:23.465Z,92.59
2017-06-08T06:55:23.468Z,91.76
2017-06-08T06:56:23.410Z,92.30
2017-06-08T06:57:23.415Z,92.43
2017-06-08T06:58:23.470Z,91.97
2017-06-08T06:59:23.368Z,91.22
2017-06-08T07:00:23.366Z,91.44
2017-06-08T07:01:23.410Z,91.82
2017-06-08T07:02:23.403Z,92.54
2017-06-08T07:03:23.358Z,90.02
2017-06-08T07:04:23.368Z,89.67
2017-06-08T07:05:23.404Z,88.89
2017-06-08T07:06:23.473Z,90.55
2017-06-08T07:07:23.430Z,90.98
2017-06-08T07:08:23.443Z,90.85
2017-06-08T07:09:23.469Z,89.22
2017-06-08T07:10:23.428Z,89.72
2017-06-08T07:11:23.462Z,88.87
2017-06-08T07:12:23.394Z,86.38
2017-06-08T07:13:23.480Z,88.54
2017-06-08T07:14:23.462Z,88.41
2017-06-08T07:15:23.480Z,88.65
2017-06-08T07:16:23.480Z,88.68
2017-06-08T07:17:23.433Z,87.96
2017-06-08T07:18:23.474Z,87.24
2017-06-08T07:19:23.452Z,87.51
2017-06-08T07:20:23.435Z,87.18
2017-06-08T07:21:23.472Z,87.90
2017-06-08T07:22:23.398Z,87.34
2017-06-08T07:23:23.397Z,87.74
2017-06-08T07:24:23.489Z,88.12
2017-06-08T07:25:23.494Z,87.21
2017-06-08T07:26:23.447Z,87.16
2017-06-08T07:27:23.450Z,87.53
2017-06-08T07:28:23.449Z,87.56
2017-06-08T07:29:23.476Z,87.69
2017-06-08T07:30:23.447Z,88.25
2017-06-08T07:31:23.552Z,88.97
2017-06-08T07:32:23.452Z,88.97
2017-06-08T07:33:23.454Z,85.88
2017-06-08T07:34:23.455Z,88.44
2017-06-08T07:35:23.453Z,88.50
2017-06-08T07:36:23.467Z,87.53
2017-06-08T07:37:23.464Z,87.72
2017-06-08T07:38:23.554Z,88.17
2017-06-08T07:39:23.466Z,88.57
2017-06-08T07:40:23.472Z,86.81
2017-06-08T07:41:23.471Z,88.62
2017-06-08T07:42:23.470Z,86.63
2017-06-08T07:43:23.466Z,87.96
2017-06-08T07:44:23.470Z,88.41
2017-06-08T07:45:23.469Z,87.32
2017-06-08T07:46:23.541Z,87.05
2017-06-08T07:47:23.402Z,88.01
2017-06-08T07:48:23.409Z,87.45
2017-06-08T07:49:23.448Z,87.72
2017-06-08T07:50:23.406Z,85.32
2017-06-08T07:51:23.531Z,85.83
2017-06-08T07:52:23.472Z,85.00
2017-06-08T07:53:23.498Z,83.62
2017-06-08T07:54:23.411Z,85.35
2017-06-08T07:55:23.411Z,84.28
2017-06-08T07:56:23.497Z,85.16
2017-06-08T07:57:23.496Z,84.95
2017-06-08T07:58:23.414Z,83.99
2017-06-08T07:59:23.415Z,84.31
2017-06-08T08:00:23.476Z,84.26
2017-06-08T08:01:23.546Z,84.12
2017-06-08T08:02:23.491Z,84.39
2017-06-08T08:03:23.501Z,84.39
2017-06-08T08:04:23.443Z,85.72
2017-06-08T08:05:23.499Z,86.04
2017-06-08T08:06:23.417Z,86.81
2017-06-08T08:07:23.483Z,86.15
2017-06-08T08:08:23.463Z,87.51
2017-06-08T08:09:23.502Z,87.26
2017-06-08T08:10:23.505Z,87.64
2017-06-08T08:11:23.498Z,88.12
2017-06-08T08:12:23.421Z,88.09
2017-06-08T08:13:23.447Z,88.09
2017-06-08T08:14:23.484Z,87.96
2017-06-08T08:15:23.496Z,87.72
2017-06-08T08:16:23.507Z,88.15
2017-06-08T08:17:23.507Z,88.15
2017-06-08T08:18:23.491Z,88.92
2017-06-08T08:19:23.538Z,88.84
2017-06-08T08:20:23.430Z,88.04
2017-06-08T08:21:23.508Z,88.23
2017-06-08T08:22:23.508Z,87.98
2017-06-08T08:23:23.425Z,86.76
2017-06-08T08:24:23.515Z,87.69
2017-06-08T08:25:23.503Z,88.15
2017-06-08T08:26:23.473Z,87.69
2017-06-08T08:27:23.427Z,87.98
2017-06-08T08:28:23.522Z,86.71
2017-06-08T08:29:23.489Z,87.29
2017-06-08T08:30:23.513Z,87.08
2017-06-08T08:31:23.514Z,86.87
2017-06-08T08:32:23.426Z,87.48
2017-06-08T08:33:23.515Z,88.20
2017-06-08T08:34:23.521Z,87.40
2017-06-08T08:35:23.429Z,87.18
2017-06-08T08:36:23.501Z,86.63
2017-06-08T08:37:23.498Z,87.45
2017-06-08T08:38:23.505Z,86.44
2017-06-08T08:39:23.415Z,86.84
2017-06-08T08:40:23.502Z,86.36
2017-06-08T08:41:23.501Z,86.12
2017-06-08T08:42:23.505Z,85.91
2017-06-08T08:43:23.502Z,86.44
2017-06-08T08:44:23.506Z,86.07
2017-06-08T08:45:23.505Z,86.30
2017-06-08T08:46:23.497Z,85.11
2017-06-08T08:47:23.490Z,85.40
2017-06-08T08:48:23.495Z,87.05
2017-06-08T08:49:23.492Z,86.63
2017-06-08T08:50:23.495Z,85.40
2017-06-08T08:51:23.494Z,85.32
2017-06-08T08:52:23.496Z,85.69
2017-06-08T08:53:23.497Z,85.66
2017-06-08T08:54:23.497Z,84.63
2017-06-08T08:55:23.497Z,85.35
2017-06-08T08:56:23.498Z,85.00
2017-06-08T08:57:23.500Z,84.89
2017-06-08T08:58:23.497Z,84.44
2017-06-08T08:59:23.495Z,84.23
2017-06-08T09:00:23.500Z,84.47
2017-06-08T09:01:23.502Z,83.81
2017-06-08T09:02:23.496Z,84.17
2017-06-08T09:03:23.499Z,83.91
2017-06-08T09:04:23.499Z,84.28
2017-06-08T09:05:23.499Z,82.96
2017-06-08T09:06:23.501Z,84.28
2017-06-08T09:07:23.516Z,84.09
2017-06-08T09:08:23.517Z,84.89
2017-06-08T09:09:23.521Z,84.97
2017-06-08T09:10:23.518Z,84.34
2017-06-08T09:11:23.519Z,84.58
2017-06-08T09:12:23.519Z,84.34
2017-06-08T09:13:23.517Z,85.19
2017-06-08T09:14:23.525Z,83.99
2017-06-08T09:15:23.519Z,83.78
2017-06-08T09:16:23.527Z,83.94
2017-06-08T09:17:23.503Z,83.54
2017-06-08T09:18:23.461Z,83.54
2017-06-08T09:19:23.497Z,82.56
2017-06-08T09:20:23.551Z,81.76
2017-06-08T09:21:23.542Z,83.97
2017-06-08T09:22:23.528Z,83.25
2017-06-08T09:23:23.458Z,83.67
2017-06-08T09:24:23.466Z,82.80
2017-06-08T09:25:23.543Z,83.17
2017-06-08T09:26:23.460Z,83.17
2017-06-08T09:27:23.500Z,82.48
2017-06-08T09:28:23.541Z,82.85
2017-06-08T09:29:23.549Z,82.75
2017-06-08T09:30:23.469Z,82.21
2017-06-08T09:31:23.554Z,82.29
2017-06-08T09:32:23.461Z,82.00
2017-06-08T09:33:23.453Z,83.62
2017-06-08T09:34:23.543Z,83.46
2017-06-08T09:35:23.550Z,83.44
2017-06-08T09:36:23.549Z,83.75
2017-06-08T09:37:23.548Z,83.44
2017-06-08T09:38:23.460Z,82.88
2017-06-08T09:39:23.507Z,82.53
2017-06-08T09:40:23.511Z,82.40
2017-06-08T09:41:23.555Z,81.68
2017-06-08T09:42:23.467Z,81.21
2017-06-08T09:43:23.531Z,81.37
2017-06-08T09:44:23.525Z,80.10
2017-06-08T09:45:23.554Z,81.32
2017-06-08T09:46:23.535Z,80.63
2017-06-08T09:47:23.471Z,81.95
2017-06-08T09:48:23.464Z,81.48
2017-06-08T09:49:23.513Z,81.95
2017-06-08T09:50:23.557Z,81.37
2017-06-08T09:51:23.473Z,82.24
2017-06-08T09:52:23.551Z,81.71
2017-06-08T09:53:23.562Z,80.52
2017-06-08T09:54:23.473Z,80.18
2017-06-08T09:55:23.556Z,82.29
2017-06-08T09:56:23.476Z,80.79
2017-06-08T09:57:23.571Z,80.76
2017-06-08T09:58:23.487Z,80.33
2017-06-08T09:59:23.526Z,80.44
2017-06-08T10:00:23.542Z,79.17
2017-06-08T10:01:23.571Z,80.02
2017-06-08T10:02:23.479Z,79.97
2017-06-08T10:03:23.570Z,78.20
2017-06-08T10:04:23.562Z,79.57
2017-06-08T10:05:23.523Z,77.99
2017-06-08T10:06:23.565Z,77.28
2017-06-08T10:07:23.546Z,77.75
2017-06-08T10:08:23.523Z,77.44
2017-06-08T10:09:23.546Z,76.67
2017-06-08T10:10:23.551Z,77.86
2017-06-08T10:11:23.550Z,77.25
2017-06-08T10:12:23.547Z,77.59
2017-06-08T10:13:23.550Z,77.41
2017-06-08T10:14:23.550Z,75.29
2017-06-08T10:15:23.566Z,77.12
2017-06-08T10:16:23.552Z,75.60
2017-06-08T10:17:23.610Z,74.99
2017-06-08T10:18:23.572Z,76.23
2017-06-08T10:19:23.572Z,76.34
2017-06-08T10:20:23.549Z,76.15
2017-06-08T10:21:23.494Z,75.68
2017-06-08T10:22:23.571Z,75.68
2017-06-08T10:23:23.575Z,74.68
2017-06-08T10:24:23.572Z,76.41
2017-06-08T10:25:23.582Z,73.55
2017-06-08T10:26:23.682Z,72.17
2017-06-08T10:27:23.584Z,73.01
2017-06-08T10:28:23.573Z,71.78
2017-06-08T10:29:23.589Z,72.67
2017-06-08T10:30:23.576Z,72.01
2017-06-08T10:31:23.587Z,71.13
2017-06-08T10:32:23.573Z,71.73
2017-06-08T10:33:23.586Z,69.36
2017-06-08T10:34:23.570Z,69.10
2017-06-08T10:35:23.560Z,68.29
2017-06-08T10:36:23.587Z,67.44
2017-06-08T10:37:23.550Z,65.78
2017-06-08T10:38:23.566Z,67.54
2017-06-08T10:39:23.499Z,68.08
2017-06-08T10:40:23.502Z,66.43
2017-06-08T10:41:23.505Z,67.16
2017-06-08T10:42:23.499Z,67.80
2017-06-08T10:43:23.499Z,64.80
2017-06-08T10:44:23.590Z,64.75
2017-06-08T10:45:23.563Z,64.13
2017-06-08T10:46:23.498Z,65.42
2017-06-08T10:47:23.583Z,64.65
2017-06-08T10:48:23.642Z,62.94
2017-06-08T10:49:23.501Z,63.77
2017-06-08T10:50:23.592Z,61.61
2017-06-08T10:51:23.600Z,62.99
2017-06-08T10:52:23.508Z,60.14
2017-06-08T10:53:23.506Z,61.63
2017-06-08T10:54:23.594Z,62.69
2017-06-08T10:55:23.597Z,54.86
2017-06-08T10:56:23.512Z,58.15
2017-06-08T10:57:23.580Z,58.38
2017-06-08T10:58:23.576Z,59.45
2017-06-08T10:59:23.578Z,63.62
2017-06-08T11:00:23.577Z,58.71
2017-06-08T11:01:23.582Z,56.93
2017-06-08T11:02:23.576Z,58.23
2017-06-08T11:03:23.576Z,57.89
2017-06-08T11:04:23.580Z,57.00
2017-06-08T11:05:23.575Z,54.02
2017-06-08T11:06:23.577Z,56.08
2017-06-08T11:07:23.577Z,55.09
2017-06-08T11:08:23.579Z,59.45
2017-06-08T11:09:23.581Z,57.33
2017-06-08T11:10:23.581Z,58.15
2017-06-08T11:11:23.579Z,55.65
2017-06-08T11:12:23.587Z,55.30
2017-06-08T11:13:23.584Z,54.66
2017-06-08T11:14:23.583Z,54.37
2017-06-08T11:15:23.581Z,53.29
2017-06-08T11:16:23.584Z,52.73
2017-06-08T11:17:23.583Z,51.99
2017-06-08T11:18:23.624Z,50.78
2017-06-08T11:19:23.583Z,51.66
2017-06-08T11:20:23.583Z,50.78
2017-06-08T11:21:23.590Z,52.68
2017-06-08T11:22:23.585Z,49.60
2017-06-08T11:23:23.593Z,52.55
2017-06-08T11:24:23.591Z,52.50
2017-06-08T11:25:23.586Z,54.25
2017-06-08T11:26:23.592Z,51.95
2017-06-08T11:27:23.528Z,50.55
2017-06-08T11:28:23.617Z,52.83
2017-06-08T11:29:23.610Z,54.91
2017-06-08T11:30:23.612Z,49.87
2017-06-08T11:31:23.527Z,49.17
2017-06-08T11:32:23.614Z,49.82
2017-06-08T11:33:23.718Z,49.04
2017-06-08T11:34:23.614Z,51.69
2017-06-08T11:35:23.619Z,52.20
2017-06-08T11:36:23.524Z,49.55
2017-06-08T11:37:23.522Z,51.84
2017-06-08T11:38:23.615Z,51.87
2017-06-08T11:39:23.558Z,51.01
2017-06-08T11:40:23.603Z,51.41
2017-06-08T11:41:23.528Z,51.26
2017-06-08T11:42:23.533Z,51.26
2017-06-08T11:43:23.536Z,50.48
2017-06-08T11:44:23.562Z,50.38
2017-06-08T11:45:23.560Z,49.69
2017-06-08T11:46:23.559Z,51.33
2017-06-08T11:47:23.532Z,48.92
2017-06-08T11:48:23.500Z,50.13
2017-06-08T11:49:23.502Z,49.69
2017-06-08T11:50:23.518Z,50.93
2017-06-08T11:51:23.519Z,50.07
2017-06-08T11:52:23.559Z,47.68
2017-06-08T11:53:23.522Z,48.79
2017-06-08T11:54:23.590Z,49.62
2017-06-08T11:55:23.593Z,47.86
2017-06-08T11:56:23.596Z,48.21
2017-06-08T11:57:23.590Z,49.47
2017-06-08T11:58:23.712Z,49.09
2017-06-08T11:59:23.594Z,47.96
2017-06-08T12:00:23.701Z,47.58
2017-06-08T12:01:23.596Z,48.34
2017-06-08T12:02:23.601Z,48.86
2017-06-08T12:03:23.597Z,48.48
2017-06-08T12:04:23.589Z,49.72
2017-06-08T12:05:23.631Z,50.30
2017-06-08T12:06:23.547Z,50.13
2017-06-08T12:07:23.639Z,50.55
2017-06-08T12:08:23.548Z,51.29
2017-06-08T12:09:23.595Z,50.86
2017-06-08T12:10:23.639Z,50.27
2017-06-08T12:11:23.634Z,48.36
2017-06-08T12:12:23.641Z,48.81
2017-06-08T12:13:23.613Z,49.82
2017-06-08T12:14:23.620Z,48.34
2017-06-08T12:15:23.618Z,49.02
2017-06-08T12:16:23.617Z,49.27
2017-06-08T12:17:23.617Z,48.48
2017-06-08T12:18:23.617Z,49.67
2017-06-08T12:19:23.737Z,50.78
2017-06-08T12:20:23.622Z,51.89
2017-06-08T12:21:23.621Z,50.30
2017-06-08T12:22:23.624Z,50.30
2017-06-08T12:23:23.623Z,51.11
2017-06-08T12:24:23.620Z,50.00
2017-06-08T12:25:23.616Z,48.56
2017-06-08T12:26:23.626Z,48.31
2017-06-08T12:27:23.624Z,49.24
2017-06-08T12:28:23.622Z,49.57
2017-06-08T12:29:23.630Z,49.49
2017-06-08T12:30:23.629Z,48.72
2017-06-08T12:31:23.623Z,48.79
2017-06-08T12:32:23.626Z,49.12
2017-06-08T12:33:23.626Z,49.57
2017-06-08T12:34:23.629Z,56.57
2017-06-08T12:35:23.629Z,46.52
2017-06-08T12:36:23.626Z,45.65
2017-06-08T12:37:23.626Z,46.58
2017-06-08T12:38:23.628Z,45.68
2017-06-08T12:39:23.644Z,48.59
2017-06-08T12:40:23.630Z,47.63
2017-06-08T12:41:23.631Z,46.27
2017-06-08T12:42:23.550Z,45.75
2017-06-08T12:43:23.630Z,46.40
2017-06-08T12:44:23.551Z,44.85
2017-06-08T12:45:23.530Z,45.02
2017-06-08T12:46:23.547Z,45.55
2017-06-08T12:47:23.500Z,44.10
2017-06-08T12:48:23.572Z,45.27
2017-06-08T12:49:23.526Z,46.32
2017-06-08T12:50:23.623Z,44.64
2017-06-08T12:51:23.577Z,47.06
2017-06-08T12:52:23.553Z,44.10
2017-06-08T12:53:23.551Z,44.82
2017-06-08T12:54:23.614Z,45.22
2017-06-08T12:55:23.655Z,45.62